createdAt,value
2023-01-13T00:01:36.104Z,5.73
2023-01-13T00:04:05.969Z,5.87
2023-01-13T00:06:34.937Z,5.40
2023-01-13T00:09:04.315Z,5.43
2023-01-13T00:11:33.704Z,5.77
2023-01-13T00:14:02.777Z,5.53
2023-01-13T00:16:31.787Z,5.50
2023-01-13T00:19:02.096Z,5.67
2023-01-13T00:21:31.461Z,5.90
2023-01-13T00:24:00.644Z,5.80
2023-01-13T00:26:33.600Z,5.63
2023-01-13T00:29:04.802Z,5.63
2023-01-13T00:31:33.940Z,5.67
2023-01-13T00:34:04.341Z,5.20
2023-01-13T00:36:33.736Z,5.77
2023-01-13T00:39:03.255Z,5.87
2023-01-13T00:41:52.621Z,5.67
2023-01-13T00:44:20.658Z,5.30
2023-01-13T00:46:49.732Z,5.40
2023-01-13T00:49:19.991Z,6.27
2023-01-13T00:51:48.968Z,5.67
2023-01-13T00:54:18.523Z,5.80
2023-01-13T00:56:47.300Z,5.67
2023-01-13T00:59:16.345Z,5.73
2023-01-13T01:01:45.832Z,6.00
2023-01-13T01:04:15.106Z,5.80
2023-01-13T01:06:45.699Z,5.90
2023-01-13T01:09:15.913Z,5.90
2023-01-13T01:11:51.306Z,5.80
2023-01-13T01:14:20.263Z,5.80
2023-01-13T01:16:49.418Z,5.97
2023-01-13T01:19:18.737Z,5.80
2023-01-13T01:21:51.246Z,5.57
2023-01-13T01:24:20.561Z,5.80
2023-01-13T01:26:49.474Z,5.57
2023-01-13T01:29:24.063Z,5.67
2023-01-13T01:31:57.999Z,6.23
2023-01-13T01:34:26.952Z,6.10
2023-01-13T01:36:57.336Z,5.70
2023-01-13T01:39:26.148Z,6.00
2023-01-13T01:42:12.541Z,6.30
2023-01-13T01:45:14.727Z,5.70
2023-01-13T01:47:44.413Z,5.80
2023-01-13T01:50:13.789Z,5.87
2023-01-13T01:52:47.719Z,5.30
2023-01-13T01:55:20.083Z,5.70
2023-01-13T01:57:52.838Z,5.93
2023-01-13T02:00:22.640Z,5.90
2023-01-13T02:03:00.053Z,5.77
2023-01-13T02:05:29.358Z,5.90
2023-01-13T02:08:02.581Z,5.80
2023-01-13T02:10:32.180Z,6.03
2023-01-13T02:13:03.225Z,5.93
2023-01-13T02:15:40.158Z,6.37
2023-01-13T02:18:32.664Z,6.03
2023-01-13T02:21:32.223Z,5.80
2023-01-13T02:24:53.870Z,6.23
2023-01-13T02:28:03.433Z,6.57
2023-01-13T02:31:03.165Z,6.40
2023-01-13T02:33:49.551Z,6.30
2023-01-13T02:36:32.910Z,6.40
2023-01-13T02:39:06.675Z,6.23
2023-01-13T02:41:59.537Z,6.00
2023-01-13T02:44:37.149Z,6.43
2023-01-13T02:47:11.819Z,6.00
2023-01-13T02:49:45.741Z,5.67
2023-01-13T02:52:20.614Z,5.77
2023-01-13T02:54:55.184Z,5.87
2023-01-13T02:57:26.987Z,5.43
2023-01-13T02:59:56.886Z,5.87
2023-01-13T03:02:27.414Z,5.77
2023-01-13T03:04:58.547Z,5.97
2023-01-13T03:07:58.307Z,4.97
2023-01-13T03:10:35.286Z,5.97
2023-01-13T03:13:15.997Z,5.57
2023-01-13T03:15:54.883Z,5.93
2023-01-13T03:18:41.678Z,5.20
2023-01-13T03:21:17.871Z,5.80
2023-01-13T03:23:51.915Z,6.17
2023-01-13T03:26:29.754Z,6.50
2023-01-13T03:29:07.526Z,6.23
2023-01-13T03:31:40.679Z,6.43
2023-01-13T03:34:15.433Z,5.20
2023-01-13T03:36:47.356Z,5.90
2023-01-13T03:39:25.723Z,6.03
2023-01-13T03:41:59.927Z,5.93
2023-01-13T03:44:34.019Z,5.90
2023-01-13T03:47:10.124Z,5.57
2023-01-13T03:49:45.991Z,5.67
2023-01-13T03:52:19.887Z,6.10
2023-01-13T03:54:52.923Z,5.97
2023-01-13T03:57:25.560Z,5.67
2023-01-13T03:59:59.547Z,5.80
2023-01-13T04:02:37.593Z,5.53
2023-01-13T04:05:10.736Z,6.53
2023-01-13T04:07:51.429Z,5.53
2023-01-13T04:10:27.542Z,5.83
2023-01-13T04:13:03.556Z,5.60
2023-01-13T04:15:35.922Z,6.00
2023-01-13T04:18:13.389Z,6.10
2023-01-13T04:20:45.435Z,6.23
2023-01-13T04:23:14.968Z,5.80
2023-01-13T04:25:45.563Z,6.23
2023-01-13T04:28:15.842Z,6.20
2023-01-13T04:30:46.215Z,5.93
2023-01-13T04:33:16.797Z,6.17
2023-01-13T04:35:48.700Z,5.97
2023-01-13T04:38:19.764Z,5.60
2023-01-13T04:40:49.023Z,6.40
2023-01-13T04:43:18.275Z,5.50
2023-01-13T04:45:47.593Z,6.00
2023-01-13T04:48:16.597Z,6.00
2023-01-13T04:50:46.951Z,5.63
2023-01-13T04:53:16.264Z,5.60
2023-01-13T04:55:47.298Z,5.83
2023-01-13T04:58:16.547Z,5.90
2023-01-13T05:00:45.710Z,5.73
2023-01-13T05:03:14.850Z,6.07
2023-01-13T05:05:44.224Z,5.70
2023-01-13T05:08:14.616Z,5.90
2023-01-13T05:10:43.729Z,5.90
2023-01-13T05:13:30.182Z,5.67
2023-01-13T05:16:19.370Z,5.80
2023-01-13T05:18:48.723Z,6.20
2023-01-13T05:21:35.188Z,5.87
2023-01-13T05:24:24.071Z,5.93
2023-01-13T05:26:54.402Z,6.13
2023-01-13T05:29:23.642Z,5.90
2023-01-13T05:31:52.980Z,5.53
2023-01-13T05:34:21.989Z,6.40
2023-01-13T05:36:51.064Z,5.93
2023-01-13T05:39:21.722Z,6.17
2023-01-13T05:42:08.131Z,6.00
2023-01-13T05:44:37.436Z,6.10
2023-01-13T05:47:06.574Z,6.40
2023-01-13T05:49:35.690Z,6.07
2023-01-13T05:52:05.121Z,5.90
2023-01-13T05:54:35.950Z,5.77
2023-01-13T05:57:05.238Z,6.30
2023-01-13T05:59:34.631Z,6.47
2023-01-13T06:02:03.845Z,6.40
2023-01-13T06:04:33.111Z,6.33
2023-01-13T06:07:02.613Z,6.50
2023-01-13T06:09:32.009Z,6.03
2023-01-13T06:12:02.688Z,5.93
2023-01-13T06:14:40.007Z,6.33
2023-01-13T06:17:09.672Z,6.37
2023-01-13T06:19:38.989Z,6.17
2023-01-13T06:22:14.557Z,6.60
2023-01-13T06:24:44.439Z,6.30
2023-01-13T06:27:15.602Z,7.07
2023-01-13T06:29:45.153Z,6.83
2023-01-13T06:32:18.368Z,6.70
2023-01-13T06:34:51.354Z,6.53
2023-01-13T06:37:25.304Z,6.63
2023-01-13T06:39:58.145Z,6.10
2023-01-13T06:42:48.204Z,6.27
2023-01-13T06:45:17.895Z,6.30
2023-01-13T06:47:47.081Z,6.47
2023-01-13T06:50:16.397Z,6.70
2023-01-13T06:52:45.544Z,6.37
2023-01-13T06:55:14.952Z,6.80
2023-01-13T06:57:51.651Z,6.40
2023-01-13T07:00:21.776Z,6.50
2023-01-13T07:02:51.608Z,6.50
2023-01-13T07:05:21.922Z,6.83
2023-01-13T07:07:51.490Z,6.70
2023-01-13T07:10:23.181Z,6.37
2023-01-13T07:13:11.636Z,6.30
2023-01-13T07:15:41.129Z,6.20
2023-01-13T07:18:10.255Z,6.20
2023-01-13T07:20:39.633Z,6.13
2023-01-13T07:23:09.350Z,5.90
2023-01-13T07:25:38.609Z,6.33
2023-01-13T07:28:08.980Z,6.17
2023-01-13T07:30:39.195Z,6.43
2023-01-13T07:33:08.311Z,6.23
2023-01-13T07:35:38.091Z,6.50
2023-01-13T07:38:08.325Z,6.37
2023-01-13T07:40:37.922Z,6.60
2023-01-13T07:43:29.413Z,6.17
2023-01-13T07:45:59.831Z,6.60
2023-01-13T07:48:29.841Z,6.70
2023-01-13T07:51:02.685Z,6.40
2023-01-13T07:53:31.987Z,6.30
2023-01-13T07:56:02.661Z,6.43
2023-01-13T07:58:35.312Z,6.43
2023-01-13T08:01:09.241Z,6.17
2023-01-13T08:03:38.401Z,6.30
2023-01-13T08:06:08.279Z,6.60
2023-01-13T08:08:37.906Z,6.13
2023-01-13T08:11:09.019Z,6.43
2023-01-13T08:13:39.291Z,5.63
2023-01-13T08:16:10.961Z,6.13
2023-01-13T08:18:40.050Z,6.10
2023-01-13T08:21:11.185Z,6.00
2023-01-13T08:23:41.305Z,6.37
2023-01-13T08:26:12.160Z,6.20
2023-01-13T08:28:42.895Z,6.30
2023-01-13T08:31:16.017Z,5.67
2023-01-13T08:33:45.758Z,6.33
2023-01-13T08:36:14.952Z,6.00
2023-01-13T08:38:44.170Z,5.60
2023-01-13T08:41:15.326Z,5.90
2023-01-13T08:43:45.902Z,6.30
2023-01-13T08:46:15.091Z,6.27
2023-01-13T08:48:44.143Z,6.17
2023-01-13T08:51:13.243Z,6.20
2023-01-13T08:53:42.335Z,6.27
2023-01-13T08:56:13.171Z,6.23
2023-01-13T08:58:42.268Z,6.13
2023-01-13T09:01:23.848Z,6.30
2023-01-13T09:03:53.248Z,5.77
2023-01-13T09:06:22.418Z,5.80
2023-01-13T09:08:52.277Z,5.77
2023-01-13T09:11:46.752Z,5.73
2023-01-13T09:14:19.606Z,6.20
2023-01-13T09:16:51.266Z,5.90
2023-01-13T09:19:20.774Z,5.97
2023-01-13T09:21:50.184Z,6.07
2023-01-13T09:24:19.830Z,6.00
2023-01-13T09:26:49.195Z,6.13
2023-01-13T09:29:18.694Z,6.27
2023-01-13T09:31:48.017Z,6.23
2023-01-13T09:34:37.656Z,6.30
2023-01-13T09:37:08.202Z,6.07
2023-01-13T09:39:38.218Z,5.67
2023-01-13T09:42:36.073Z,6.10
2023-01-13T09:45:11.334Z,5.83
2023-01-13T09:47:47.384Z,6.00
2023-01-13T09:50:26.276Z,6.07
2023-01-13T09:52:55.903Z,6.13
2023-01-13T09:55:30.528Z,5.80
2023-01-13T09:58:00.185Z,6.03
2023-01-13T10:00:37.276Z,6.23
2023-01-13T10:03:24.436Z,5.80
2023-01-13T10:06:04.632Z,5.73
2023-01-13T10:08:36.677Z,6.17
2023-01-13T10:11:34.387Z,6.07
2023-01-13T10:14:05.007Z,5.47
2023-01-13T10:16:43.163Z,5.50
2023-01-13T10:19:18.788Z,5.67
2023-01-13T10:22:09.906Z,5.83
2023-01-13T10:25:03.836Z,6.30
2023-01-13T10:27:35.661Z,6.10
2023-01-13T10:30:21.399Z,5.93
2023-01-13T10:32:55.867Z,5.60
2023-01-13T10:35:49.843Z,6.20
2023-01-13T10:38:22.214Z,5.60
2023-01-13T10:40:53.531Z,6.03
2023-01-13T10:43:23.164Z,6.00
2023-01-13T10:45:58.658Z,5.93
2023-01-13T10:48:36.624Z,5.80
2023-01-13T10:51:27.569Z,6.00
2023-01-13T10:54:01.524Z,5.70
2023-01-13T10:56:32.960Z,5.80
2023-01-13T10:59:16.414Z,5.47
2023-01-13T11:01:59.790Z,5.27
2023-01-13T11:04:32.811Z,5.90
2023-01-13T11:07:03.697Z,5.50
2023-01-13T11:09:34.430Z,6.00
2023-01-13T11:12:04.069Z,5.83
2023-01-13T11:14:40.764Z,5.50
2023-01-13T11:17:35.368Z,5.97
2023-01-13T11:20:18.600Z,6.07
2023-01-13T11:22:49.997Z,5.77
2023-01-13T11:25:24.986Z,5.43
2023-01-13T11:27:58.831Z,5.83
2023-01-13T11:30:35.856Z,5.90
2023-01-13T11:33:21.469Z,5.10
2023-01-13T11:36:03.082Z,5.20
2023-01-13T11:38:35.211Z,4.50
2023-01-13T11:41:14.545Z,4.70
2023-01-13T11:43:52.424Z,4.90
2023-01-13T11:46:25.574Z,4.13
2023-01-13T11:48:57.394Z,4.80
2023-01-13T11:51:37.296Z,3.73
2023-01-13T11:54:22.481Z,4.30
2023-01-13T11:57:15.250Z,4.13
2023-01-13T12:00:10.910Z,4.20
2023-01-13T12:03:18.291Z,4.07
2023-01-13T12:06:04.326Z,3.70
2023-01-13T12:08:48.007Z,3.70
2023-01-13T12:11:23.949Z,4.43
2023-01-13T12:14:13.789Z,3.80
2023-01-13T12:16:48.518Z,3.13
2023-01-13T12:19:25.643Z,3.80
2023-01-13T12:22:10.763Z,3.30
2023-01-13T12:24:46.622Z,3.43
2023-01-13T12:27:22.663Z,3.43
2023-01-13T12:29:58.333Z,3.77
2023-01-13T12:32:35.165Z,4.00
2023-01-13T12:35:27.048Z,3.80
2023-01-13T12:38:00.780Z,4.07
2023-01-13T12:40:48.570Z,5.57
2023-01-13T12:43:37.151Z,5.07
2023-01-13T12:46:36.260Z,4.67
2023-01-13T12:49:19.014Z,5.30
2023-01-13T12:52:15.306Z,4.67
2023-01-13T12:55:05.980Z,4.77
2023-01-13T12:57:37.512Z,5.30
2023-01-13T13:00:22.097Z,5.13
2023-01-13T13:03:33.332Z,5.30
2023-01-13T13:06:17.010Z,5.37
2023-01-13T13:08:58.187Z,5.40
2023-01-13T13:11:57.541Z,5.40
2023-01-13T13:15:03.891Z,5.83
2023-01-13T13:17:43.139Z,6.00
2023-01-13T13:20:53.755Z,5.80
2023-01-13T13:23:44.017Z,5.40
2023-01-13T13:26:21.237Z,5.70
2023-01-13T13:29:00.283Z,6.10
2023-01-13T13:31:38.843Z,5.90
2023-01-13T13:34:16.811Z,5.80
2023-01-13T13:37:03.188Z,5.47
2023-01-13T13:39:53.144Z,5.73
2023-01-13T13:42:52.002Z,5.63
2023-01-13T13:45:41.146Z,6.17
2023-01-13T13:48:25.068Z,5.90
2023-01-13T13:50:58.226Z,10.53
2023-01-13T13:53:31.402Z,6.30
2023-01-13T13:56:05.009Z,5.83
2023-01-13T13:58:36.993Z,5.80
2023-01-13T14:01:07.601Z,6.10
2023-01-13T14:03:40.149Z,6.10
2023-01-13T14:06:24.245Z,6.33
2023-01-13T14:08:53.856Z,6.40
2023-01-13T14:11:31.003Z,6.43
2023-01-13T14:14:05.798Z,6.37
2023-01-13T14:16:36.465Z,6.23
2023-01-13T14:19:05.818Z,5.97
2023-01-13T14:21:34.931Z,5.87
2023-01-13T14:24:14.724Z,6.30
2023-01-13T14:26:51.330Z,6.43
2023-01-13T14:29:23.661Z,6.00
2023-01-13T14:31:54.773Z,5.97
2023-01-13T14:34:33.210Z,5.80
2023-01-13T14:37:03.050Z,6.87
2023-01-13T14:39:38.940Z,6.00
2023-01-13T14:42:14.942Z,6.67
2023-01-13T14:44:46.855Z,6.20
2023-01-13T14:47:23.699Z,6.13
2023-01-13T14:49:59.066Z,5.93
2023-01-13T14:52:29.957Z,6.17
2023-01-13T14:55:23.880Z,6.13
2023-01-13T14:57:54.566Z,6.13
2023-01-13T15:00:28.191Z,6.50
2023-01-13T15:03:07.191Z,6.27
2023-01-13T15:05:39.986Z,6.53
2023-01-13T15:08:40.832Z,6.90
2023-01-13T15:11:24.840Z,7.13
2023-01-13T15:14:01.209Z,6.90
2023-01-13T15:16:33.870Z,6.80
2023-01-13T15:19:04.523Z,6.40
2023-01-13T15:21:33.712Z,6.83
2023-01-13T15:24:03.108Z,6.63
2023-01-13T15:26:35.004Z,6.97
2023-01-13T15:29:06.389Z,7.13
2023-01-13T15:31:35.871Z,7.17
2023-01-13T15:34:04.865Z,7.10
2023-01-13T15:36:36.784Z,7.17
2023-01-13T15:39:06.160Z,7.50
2023-01-13T15:41:52.691Z,7.77
2023-01-13T15:44:40.589Z,6.77
2023-01-13T15:47:11.751Z,7.53
2023-01-13T15:49:43.916Z,7.20
2023-01-13T15:52:21.306Z,7.40
2023-01-13T15:54:50.850Z,7.30
2023-01-13T15:57:24.111Z,7.10
2023-01-13T15:59:57.362Z,7.40
2023-01-13T16:02:26.684Z,7.27
2023-01-13T16:04:55.781Z,7.40
2023-01-13T16:07:26.902Z,7.37
2023-01-13T16:09:56.118Z,7.67
2023-01-13T16:12:25.229Z,6.43
2023-01-13T16:14:55.619Z,7.00
2023-01-13T16:17:30.063Z,6.97
2023-01-13T16:20:00.046Z,6.87
2023-01-13T16:22:29.192Z,6.53
2023-01-13T16:24:58.322Z,6.67
2023-01-13T16:27:27.416Z,7.23
2023-01-13T16:29:57.878Z,7.10
2023-01-13T16:32:26.757Z,7.23
2023-01-13T16:34:56.065Z,7.17
2023-01-13T16:37:26.944Z,7.80
2023-01-13T16:39:56.439Z,7.67
2023-01-13T16:42:25.592Z,7.53
2023-01-13T16:44:54.593Z,7.70
2023-01-13T16:47:25.141Z,7.30
2023-01-13T16:49:54.306Z,7.53
2023-01-13T16:52:23.183Z,6.90
2023-01-13T16:54:52.368Z,7.27
2023-01-13T16:57:21.395Z,7.53
2023-01-13T16:59:51.620Z,7.40
2023-01-13T17:02:21.165Z,6.60
2023-01-13T17:04:51.516Z,7.23
2023-01-13T17:07:20.945Z,7.37
2023-01-13T17:09:50.271Z,7.60
2023-01-13T17:12:19.476Z,7.23
2023-01-13T17:14:48.492Z,7.17
2023-01-13T17:17:23.149Z,7.90
2023-01-13T17:19:53.995Z,7.80
2023-01-13T17:22:23.675Z,7.60
2023-01-13T17:24:52.912Z,7.77
2023-01-13T17:27:23.087Z,6.90
2023-01-13T17:29:52.124Z,7.17
2023-01-13T17:32:22.964Z,6.87
2023-01-13T17:34:53.967Z,7.80
2023-01-13T17:37:22.814Z,7.20
2023-01-13T17:39:53.521Z,7.70
2023-01-13T17:42:24.891Z,7.37
2023-01-13T17:44:54.057Z,7.87
2023-01-13T17:47:23.015Z,7.70
2023-01-13T17:49:54.269Z,7.80
2023-01-13T17:52:23.321Z,7.63
2023-01-13T17:54:52.758Z,7.60
2023-01-13T17:57:21.913Z,7.30
2023-01-13T17:59:50.889Z,7.23
2023-01-13T18:02:20.157Z,7.00
2023-01-13T18:04:49.303Z,7.23
2023-01-13T18:07:19.555Z,6.73
2023-01-13T18:09:48.562Z,7.20
2023-01-13T18:12:18.225Z,7.33
2023-01-13T18:14:47.084Z,7.23
2023-01-13T18:17:16.984Z,7.43
2023-01-13T18:20:03.765Z,7.63
2023-01-13T18:22:51.418Z,7.37
2023-01-13T18:25:38.251Z,7.60
2023-01-13T18:28:07.537Z,7.37
2023-01-13T18:30:36.678Z,7.27
2023-01-13T18:33:05.800Z,6.90
2023-01-13T18:35:34.816Z,7.27
2023-01-13T18:38:05.330Z,7.50
2023-01-13T18:40:34.295Z,7.43
2023-01-13T18:43:02.384Z,8.00
2023-01-13T18:45:33.273Z,7.37
2023-01-13T18:48:04.644Z,7.90
2023-01-13T18:50:35.564Z,7.77
2023-01-13T18:53:06.043Z,7.57
2023-01-13T18:55:35.168Z,7.90
2023-01-13T18:58:04.407Z,7.87
2023-01-13T19:00:37.062Z,7.73
2023-01-13T19:05:37.981Z,7.80
2023-01-13T19:08:08.664Z,7.97
2023-01-13T19:10:38.576Z,7.57
2023-01-13T19:13:07.998Z,7.57
2023-01-13T19:15:38.102Z,7.13
2023-01-13T19:18:07.323Z,7.87
2023-01-13T19:20:36.374Z,7.73
2023-01-13T19:23:05.538Z,7.07
2023-01-13T19:25:38.079Z,7.60
2023-01-13T19:28:07.264Z,7.87
2023-01-13T19:30:36.284Z,7.77
2023-01-13T19:33:05.539Z,7.10
2023-01-13T19:35:34.551Z,8.10
2023-01-13T19:38:03.664Z,7.90
2023-01-13T19:40:32.878Z,7.37
2023-01-13T19:43:20.710Z,7.50
2023-01-13T19:45:52.103Z,7.40
2023-01-13T19:48:21.391Z,7.53
2023-01-13T19:50:50.383Z,7.73
2023-01-13T19:53:19.434Z,6.93
2023-01-13T19:55:49.586Z,6.83
2023-01-13T19:58:20.154Z,7.80
2023-01-13T20:00:49.139Z,7.10
2023-01-13T20:03:20.569Z,7.93
2023-01-13T20:05:50.035Z,7.63
2023-01-13T20:08:20.148Z,7.37
2023-01-13T20:10:50.231Z,7.70
2023-01-13T20:13:20.751Z,8.03
2023-01-13T20:15:49.860Z,7.73
2023-01-13T20:18:18.888Z,8.43
2023-01-13T20:20:48.121Z,8.73
2023-01-13T20:23:17.351Z,7.90
2023-01-13T20:25:46.374Z,9.17
2023-01-13T20:28:15.481Z,9.47
2023-01-13T20:30:46.344Z,8.87
2023-01-13T20:33:15.422Z,8.33
2023-01-13T20:35:45.393Z,8.37
2023-01-13T20:38:16.148Z,8.33
2023-01-13T20:40:45.248Z,8.27
2023-01-13T20:43:13.373Z,7.73
2023-01-13T20:45:42.849Z,7.13
2023-01-13T20:48:13.437Z,7.97
2023-01-13T20:50:42.627Z,8.23
2023-01-13T20:53:11.590Z,8.10
2023-01-13T20:55:40.960Z,7.57
2023-01-13T20:58:10.001Z,7.90
2023-01-13T21:00:39.043Z,8.13
2023-01-13T21:03:08.160Z,8.00
2023-01-13T21:05:38.700Z,7.60
2023-01-13T21:08:07.998Z,8.10
2023-01-13T21:10:37.081Z,7.43
2023-01-13T21:13:24.253Z,7.63
2023-01-13T21:15:55.296Z,7.93
2023-01-13T21:18:41.583Z,7.80
2023-01-13T21:21:14.864Z,7.57
2023-01-13T21:23:47.235Z,7.70
2023-01-13T21:26:17.092Z,7.60
2023-01-13T21:28:46.090Z,7.77
2023-01-13T21:31:16.150Z,7.10
2023-01-13T21:33:47.677Z,7.73
2023-01-13T21:36:18.047Z,7.17
2023-01-13T21:38:51.936Z,7.83
2023-01-13T21:41:42.190Z,7.87
2023-01-13T21:44:33.345Z,7.60
2023-01-13T21:47:20.489Z,7.50
2023-01-13T21:49:49.805Z,8.00
2023-01-13T21:52:20.442Z,7.90
2023-01-13T21:55:06.717Z,7.70
2023-01-13T21:57:35.833Z,7.33
2023-01-13T22:00:06.507Z,8.30
2023-01-13T22:02:36.456Z,8.27
2023-01-13T22:05:08.770Z,7.93
2023-01-13T22:07:40.955Z,7.73
2023-01-13T22:10:11.760Z,7.77
2023-01-13T22:12:40.872Z,7.60
2023-01-13T22:15:12.503Z,7.60
2023-01-13T22:17:42.390Z,7.77
2023-01-13T22:20:13.572Z,7.90
2023-01-13T22:22:44.139Z,7.57
2023-01-13T22:25:16.195Z,7.83
2023-01-13T22:27:45.763Z,7.80
2023-01-13T22:30:17.732Z,7.67
2023-01-13T22:32:47.332Z,7.97
2023-01-13T22:35:17.481Z,8.00
2023-01-13T22:37:48.275Z,7.40
2023-01-13T22:40:17.575Z,7.50
2023-01-13T22:42:46.591Z,7.63
2023-01-13T22:45:16.172Z,7.50
2023-01-13T22:47:45.253Z,8.07
2023-01-13T22:50:17.507Z,8.00
2023-01-13T22:52:48.111Z,7.53
2023-01-13T22:55:17.616Z,7.53
2023-01-13T22:57:48.393Z,7.53
2023-01-13T23:00:19.696Z,7.70
2023-01-13T23:02:48.670Z,8.30
2023-01-13T23:05:17.931Z,7.90
2023-01-13T23:07:48.252Z,8.10
2023-01-13T23:10:18.103Z,7.60
2023-01-13T23:12:48.792Z,7.73
2023-01-13T23:15:17.908Z,7.60
2023-01-13T23:17:49.933Z,7.93
2023-01-13T23:20:19.695Z,8.23
2023-01-13T23:22:54.997Z,7.87
2023-01-13T23:25:27.213Z,7.53
2023-01-13T23:28:03.605Z,7.57
2023-01-13T23:30:32.830Z,7.60
2023-01-13T23:33:11.859Z,8.27
2023-01-13T23:35:44.294Z,7.63
2023-01-13T23:38:17.648Z,7.97
2023-01-13T23:40:46.947Z,8.10
2023-01-13T23:43:16.767Z,7.10
2023-01-13T23:45:46.930Z,7.57
2023-01-13T23:48:16.856Z,7.43
2023-01-13T23:50:56.906Z,7.33
2023-01-13T23:53:33.483Z,7.87
2023-01-13T23:56:04.192Z,8.37
2023-01-13T23:58:33.675Z,8.07
